Decoded Metar for YTEF (TELFER AIRPORT in _UNIDENTIFIED) (IATA:N/A) | Meteo·Mobile Aviation Weather
aviador You're here:

YTEF Decoded Metar

TELFER AIRPORT in _UNIDENTIFIED
Report Time2018-08-22 06:00:00
UTC Time2018-08-22 06:57:57
Flight Rules vfr VFR
Wind250° at 12 kt
W.Decomp.*RWY 30: 7.4 kt HW 9.5 kt LCW
W.Rank250° ranks 19
Current wind is above 250° avg. (7.9)
Visibility9999 m
Phenomena:N/A
Clouds:Scattered 090 Hf
Expected CloudBase > 9,200 ft AGL from Temp-Dew spread
CeilingNone
Temp29°C (ISA +16)
Dew Point06°C (23% RH)
Heat Index27.6°C
AAT23.7°C
QNH1014 hPa
Density Alt2,894 ft
Elevation971 ft
Report Wrong Elevation
Raw Report
YTEF 220600Z AUTO 25012KT 180V260 9999 // SCT090 29/06 Q1014=

Extra information for YTEF:More info

Metar Taf Metar & Taf Last 4 Metars F.Rules Stats Wind Profile Meteogram Temp Stats Airport Information Weather charts Add Link Nearby VenuesMetar ALERT Operation Metar Decoded Social comments